• Join FlightAware (Why Join?)
  • Login
  • US Flag 
Trick or treat! (Boo!!) 
04:56PM EDT


 

Airport Tracker/Info


-or-


 

Live Flight TrackerFlight Track Log ✈ TCF3494 ✈ 21-Apr-2013 ✈ KORD - KLGA

Flight Track Log - Related Links

Times and Time Zones

All times are in EDT time to prevent confusion due to time zone crossing. See the TCF3494 flight status page for this flight to view local times or setup timezone preferences in your user account.

Time Position Orientation Groundspeed Altitude Reporting Facility
EDT Latitude Longitude Course Direction KTS MPH feet Rate Location/Type
04:27PM 41.9333 -87.8833 90° East 177 204 2,700  Level Chicago TRACON
04:28PM 41.9000 -87.8000 118° Southeast 239 275 4,600 1,260 Climbing Chicago TRACON
04:30PM 41.9349 -87.1546 95° East  Level FlightAware Approximate
04:30PM 41.8961 -87.6011 91° East 274 315 6,500  Level Chicago Center
04:31PM 41.9333 -87.0051 90° East  Level FlightAware Approximate
04:31PM 41.9075 -87.4925 82° East 292 336 9,300  Level Chicago Center
04:32PM 41.9333 -86.8561 90° East  Level FlightAware Approximate
04:32PM 41.9169 -87.3808 83° East 300 345 12,000  Level Chicago Center
04:33PM 41.9272 -87.2661 83° East 308 354 14,400 1,980 Climbing Chicago Center
04:34PM 41.9381 -87.1483 83° East 317 365 16,200 1,740 Climbing Chicago Center
04:35PM 41.9469 -86.9922 86° East 350 403 18,100 1,380 Climbing Chicago Center
04:36PM 41.9481 -86.8533 89° East 368 423 19,100 1,260 Climbing Chicago Center
04:37PM 41.9503 -86.7117 89° East 379 436 20,800 1,500 Climbing Chicago Center
04:38PM 41.9511 -86.5808 89° East 386 444 22,200 1,500 Climbing Chicago Center
04:39PM 41.9544 -86.4022 89° East 397 457 24,000 1,440 Climbing Chicago Center
04:40PM 41.9556 -86.2514 89° East 404 465 25,200 1,200 Climbing Chicago Center
04:41PM 41.9444 -86.0972 95° East 413 475 26,500 1,200 Climbing Chicago Center
04:42PM 41.9303 -85.9425 97° East 417 480 27,700 1,080 Climbing Chicago Center
04:43PM 41.9150 -85.7819 97° East 430 495 28,800 960 Climbing Chicago Center
04:44PM 41.8994 -85.6181 97° East 439 505 29,800 960 Climbing Chicago Center
04:45PM 41.8831 -85.4475 97° East 453 521 30,800 1,020 Climbing Chicago Center
04:46PM 41.8628 -85.2389 97° East 463 533 32,000 1,020 Climbing Chicago Center
04:47PM 41.8458 -85.0653 97° East 467 537 33,000 720 Climbing Chicago Center
04:48PM 41.8425 -85.0294 97° East 465 535 33,000  Level Cleveland Center
04:49PM 41.8258 -84.8611 98° East 465 535 33,000  Level Cleveland Center
04:50PM 41.8092 -84.6928 98° East 465 535 33,000  Level Cleveland Center
04:51PM 41.7900 -84.5269 99° East 459 528 33,000  Level Cleveland Center
04:52PM 41.7789 -84.3564 95° East 454 522 33,000  Level Cleveland Center
04:53PM 41.7744 -84.1753 92° East 454 522 33,000  Level Cleveland Center
04:54PM 41.7733 -84.0053 90° East 454 522 33,000  Level Cleveland Center
04:55PM 41.7719 -83.8353 91° East 454 522 33,000  Level Cleveland Center
04:56PM 41.7706 -83.6653 91° East 454 522 33,000  Level Cleveland Center
04:57PM 41.7625 -83.4950 94° East 454 522 33,000  Level Cleveland Center
04:58PM 41.7456 -83.3300 98° East 454 522 33,000  Level Cleveland Center
04:59PM 41.7308 -83.1597 97° East 454 522 33,000  Level Cleveland Center
05:00PM 41.7156 -82.9950 97° East 454 522 33,000  Level Cleveland Center
05:01PM 41.6981 -82.8303 98° East 448 516 33,000  Level Cleveland Center
05:02PM 41.6806 -82.6628 98° East 448 516 33,000  Level Cleveland Center
05:03PM 41.6647 -82.4983 97° East 448 516 33,000  Level Cleveland Center
05:04PM 41.6483 -82.3450 98° East 453 521 33,000  Level Cleveland Center
05:05PM 41.6300 -82.1778 98° East 453 521 33,000  Level Cleveland Center
05:06PM 41.6114 -82.0106 98° East 453 521 33,000  Level Cleveland Center
05:07PM 41.5925 -81.8408 98° East 453 521 33,000  Level Cleveland Center
05:08PM 41.5733 -81.6572 98° East 453 521 33,000  Level Cleveland Center
05:09PM 41.5542 -81.4906 99° East 453 521 33,000  Level Cleveland Center
05:10PM 41.5364 -81.3239 98° East 453 521 33,000  Level Cleveland Center
05:11PM 41.5144 -81.1572 100° East 453 521 33,000  Level Cleveland Center
05:12PM 41.5006 -80.9878 96° East 453 521 33,000  Level Cleveland Center
05:13PM 41.4844 -80.8186 97° East 459 528 33,000  Level Cleveland Center
05:14PM 41.4722 -80.6664 96° East 459 528 33,000  Level Cleveland Center
05:15PM 41.4575 -80.5139 97° East 441 507 33,000  Level Cleveland Center
05:16PM 41.4428 -80.3561 97° East 428 493 33,000  Level Cleveland Center
05:17PM 41.4300 -80.2008 96° East 423 487 33,000  Level Cleveland Center
05:18PM 41.4147 -80.0433 97° East 423 487 33,000  Level Cleveland Center
05:19PM 41.3992 -79.8911 98° East 423 487 33,000  Level Cleveland Center
05:20PM 41.3836 -79.7392 98° East 423 487 33,000  Level Cleveland Center
05:21PM 41.3700 -79.5844 97° East 423 487 33,000  Level Cleveland Center
05:22PM 41.3539 -79.4297 98° East 423 487 33,000  Level Cleveland Center
05:23PM 41.3375 -79.2750 98° East 423 487 33,000  Level Cleveland Center
05:24PM 41.3211 -79.1233 98° East 423 487 33,000  Level Cleveland Center
05:25PM 41.3044 -78.9689 98° East 423 487 33,000  Level Cleveland Center
05:26PM 41.2897 -78.8200 97° East 423 487 33,000  Level Cleveland Center
05:27PM 41.2747 -78.6658 97° East 423 487 33,000  Level Cleveland Center
05:28PM 41.2575 -78.5114 98° East 423 487 33,000  Level Cleveland Center
05:29PM 41.2381 -78.3453 99° East 418 481 33,000  Level New York Center
05:30PM 41.2206 -78.1944 99° East 438 504 33,000  Level New York Center
05:31PM 41.2028 -78.0433 99° East 426 490 33,000  Level New York Center
05:32PM 41.1828 -77.8922 100° East 420 483 33,000  Level New York Center
05:33PM 41.1647 -77.7389 99° East 420 483 33,000  Level New York Center
05:34PM 41.1442 -77.5906 100° East 414 476 33,000  Level New York Center
05:35PM 41.1258 -77.4372 99° East 414 476 33,000  Level New York Center
05:36PM 41.1050 -77.2892 101° East 414 476 33,000  Level New York Center
05:37PM 41.0861 -77.1358 99° East 414 476 33,000 -900 Level New York Center
05:38PM 41.0650 -76.9853 100° East 414 476 31,300 -2,460 Descending New York Center
05:39PM 41.0436 -76.8319 100° East 414 476 28,200 -3,060 Descending New York Center
05:40PM 41.0239 -76.6897 100° East 414 476 25,200 -1,620 Descending New York Center
05:41PM 41.0428 -76.5622 79° East 378 435 25,000 -420 Descending New York Center
05:42PM 41.1228 -76.5883 346° North 193 222 24,400 -540 Descending New York Center
05:43PM 41.1428 -76.6864 285° West 160 184 24,000 -240 Descending New York Center
05:44PM 41.1564 -76.7869 280° West 219 252 24,000  Level New York Center
05:45PM 41.1497 -76.8800 265° West 247 284 24,000  Level New York Center
05:46PM 41.0817 -76.9042 195° South 209 241 24,000  Level New York Center
05:47PM 41.0408 -76.8097 120° Southeast 166 191 24,000  Level New York Center
05:48PM 41.0239 -76.6897 101° East 233 268 24,000  Level New York Center
05:49PM 41.0419 -76.5786 78° East 281 323 24,000  Level New York Center
05:50PM 41.1131 -76.6150 339° North 157 181 24,000 -180 Level New York Center
05:51PM 41.1292 -76.7100 283° West 146 168 23,700 -600 Descending New York Center
05:52PM 41.1450 -76.8053 282° West 209 241 22,900 -900 Descending New York Center
05:53PM 41.1464 -76.9017 271° West 243 280 22,000 -900 Descending New York Center
05:54PM 41.0792 -76.8736 163° South 137 158 21,100 -1,020 Descending New York Center
05:55PM 41.0481 -76.7469 108° East 197 227 20,000 -600 Descending New York Center
05:56PM 41.0150 -76.6147 108° East 298 343 20,000 -420 Level New York Center
05:57PM 40.9797 -76.4825 109° East 341 392 19,200 -900 Descending New York Center
05:58PM 40.9486 -76.3508 107° East 368 423 18,200 -840 Descending New York Center
05:59PM 40.9206 -76.2358 108° East 373 429 17,600 -1,080 Descending New York Center
06:00PM 40.8889 -76.1125 109° East 368 423 16,100 -1,320 Descending New York Center
06:01PM 40.8553 -75.9783 108° East 355 409 15,000 -1,140 Descending New York Center
06:02PM 40.8272 -75.8556 107° East 350 403 13,900 -1,020 Descending New York Center
06:03PM 40.7986 -75.7408 108° East 344 396 13,000 -480 Descending New York Center
06:04PM 40.7717 -75.6375 109° East 333 383 13,000  Level New York Center
06:05PM 40.7414 -75.5094 107° East 333 383 13,000  Level New York Center
06:06PM 40.7147 -75.3953 107° East 326 375 13,000  Level New York Center
06:07PM 40.6919 -75.2869 105° East 316 364 13,000  Level New York Center
06:08PM 40.6728 -75.1872 104° East 306 352 13,000 -840 Level New York Center
06:09PM 40.6222 -75.0911 125° Southeast 301 346 11,400 -1,560 Descending New York Center
06:10PM 40.5708 -75.0086 129° Southeast 296 341 10,000 -720 Descending New York Center
06:11PM 40.5389 -74.9136 114° Southeast 291 335 10,000  Level New York Center
06:12PM 40.5167 -74.8331 110° East 263 303 10,000  Level New York Center
06:12PM 40.5000 -74.8000 124° Southeast 245 282 10,000  Level New York TRACON
06:13PM 40.4833 -74.7167 105° East 246 283 10,000  Level New York TRACON
06:14PM 40.4500 -74.6333 118° Southeast 249 287 10,000  Level New York TRACON
06:15PM 40.4000 -74.5833 143° Southeast 246 283 10,000  Level New York TRACON
06:16PM 40.3333 -74.5500 159° South 246 283 10,000 -240 Level New York TRACON
06:17PM 40.3000 -74.5000 131° Southeast 218 251 9,600 -660 Descending New York TRACON
06:18PM 40.3167 -74.4333 72° East 197 227 8,700 -840 Descending New York TRACON
06:19PM 40.3500 -74.3833 49° Northeast 191 220 8,000 -360 Descending New York TRACON
06:20PM 40.3833 -74.3333 49° Northeast 190 219 8,000  Level New York TRACON
06:21PM 40.4167 -74.2833 49° Northeast 189 217 8,000  Level New York TRACON
06:22PM 40.4500 -74.2333 49° Northeast 185 213 8,000 -540 Level New York TRACON
06:23PM 40.4833 -74.1833 49° Northeast 181 208 7,000 -1,020 Descending New York TRACON
06:24PM 40.5167 -74.1333 49° Northeast 177 204 6,000 -960 Descending New York TRACON
06:25PM 40.5500 -74.0833 49° Northeast 180 207 5,100 -960 Descending New York TRACON
06:26PM 40.6000 -74.0667 14° North 178 205 4,100 -1,020 Descending New York TRACON
06:27PM 40.6500 -74.0500 14° North 175 201 3,000 -600 Descending New York TRACON
06:28PM 40.7000 -74.0333 14° North 177 204 3,000  Level New York TRACON
06:29PM 40.7500 -74.0167 14° North 178 205 3,000  Level New York TRACON
06:30PM 40.7833 -74.0000 21° North 179 206 3,000  Level New York TRACON
06:31PM 40.8333 -73.9667 27° Northeast 175 201 3,000  Level New York TRACON
06:32PM 40.8667 -73.9167 49° Northeast 181 208 3,000  Level New York TRACON
06:33PM 40.9167 -73.8833 27° Northeast 176 203 3,000 -300 Level New York TRACON
06:34PM 40.9000 -73.8167 108° East 185 213 2,500 -660 Descending New York TRACON
06:35PM 40.8667 -73.8167 180° South 185 213 1,700 -840 Descending New York TRACON